sensor_id;sensor_type;location;lat;lon;timestamp;temperature;humidity
3156;DHT22;1588;50.892;7.082;2023-09-08T00:00:18;16.90;99.90
3156;DHT22;1588;50.892;7.082;2023-09-08T00:05:21;16.80;99.90
3156;DHT22;1588;50.892;7.082;2023-09-08T00:10:27;16.70;99.90
3156;DHT22;1588;50.892;7.082;2023-09-08T00:15:29;16.60;99.90
3156;DHT22;1588;50.892;7.082;2023-09-08T00:20:31;16.50;99.90
3156;DHT22;1588;50.892;7.082;2023-09-08T00:25:35;16.50;99.90
3156;DHT22;1588;50.892;7.082;2023-09-08T00:30:37;16.50;99.90
3156;DHT22;1588;50.892;7.082;2023-09-08T00:35:41;16.50;99.90
3156;DHT22;1588;50.892;7.082;2023-09-08T00:40:47;16.60;99.90
3156;DHT22;1588;50.892;7.082;2023-09-08T00:45:49;16.60;99.90
3156;DHT22;1588;50.892;7.082;2023-09-08T00:50:52;16.50;99.90
3156;DHT22;1588;50.892;7.082;2023-09-08T00:55:56;16.40;99.90
3156;DHT22;1588;50.892;7.082;2023-09-08T01:01:01;16.40;99.90
3156;DHT22;1588;50.892;7.082;2023-09-08T01:06:03;16.20;99.90
3156;DHT22;1588;50.892;7.082;2023-09-08T01:11:08;16.10;99.90
3156;DHT22;1588;50.892;7.082;2023-09-08T01:16:10;16.00;99.90
3156;DHT22;1588;50.892;7.082;2023-09-08T01:26:52;16.00;99.90
3156;DHT22;1588;50.892;7.082;2023-09-08T01:31:55;15.90;99.90
3156;DHT22;1588;50.892;7.082;2023-09-08T01:36:57;15.80;99.90
3156;DHT22;1588;50.892;7.082;2023-09-08T01:42:03;15.70;99.90
3156;DHT22;1588;50.892;7.082;2023-09-08T01:47:05;15.70;99.90
3156;DHT22;1588;50.892;7.082;2023-09-08T01:52:07;15.50;99.90
3156;DHT22;1588;50.892;7.082;2023-09-08T01:57:11;15.50;99.90
3156;DHT22;1588;50.892;7.082;2023-09-08T02:02:14;15.50;99.90
3156;DHT22;1588;50.892;7.082;2023-09-08T02:07:16;15.40;99.90
3156;DHT22;1588;50.892;7.082;2023-09-08T02:12:21;15.50;99.90
3156;DHT22;1588;50.892;7.082;2023-09-08T02:17:23;15.40;99.90
3156;DHT22;1588;50.892;7.082;2023-09-08T02:22:25;15.50;99.90
3156;DHT22;1588;50.892;7.082;2023-09-08T02:27:29;15.60;99.90
3156;DHT22;1588;50.892;7.082;2023-09-08T02:32:31;15.50;99.90
3156;DHT22;1588;50.892;7.082;2023-09-08T02:37:33;15.40;99.90
3156;DHT22;1588;50.892;7.082;2023-09-08T02:42:37;15.20;99.90
3156;DHT22;1588;50.892;7.082;2023-09-08T02:47:46;15.10;99.90
3156;DHT22;1588;50.892;7.082;2023-09-08T02:52:49;15.00;99.90
3156;DHT22;1588;50.892;7.082;2023-09-08T02:57:53;15.00;99.90
3156;DHT22;1588;50.892;7.082;2023-09-08T03:02:56;14.90;99.90
3156;DHT22;1588;50.892;7.082;2023-09-08T03:07:58;14.90;99.90
3156;DHT22;1588;50.892;7.082;2023-09-08T03:13:02;14.90;99.90
3156;DHT22;1588;50.892;7.082;2023-09-08T03:18:04;14.90;99.90
3156;DHT22;1588;50.892;7.082;2023-09-08T03:23:07;14.80;99.90
3156;DHT22;1588;50.892;7.082;2023-09-08T03:28:11;14.70;99.90
3156;DHT22;1588;50.892;7.082;2023-09-08T03:33:14;14.60;99.90
3156;DHT22;1588;50.892;7.082;2023-09-08T03:38:16;14.50;99.90
3156;DHT22;1588;50.892;7.082;2023-09-08T03:43:19;14.50;99.90
3156;DHT22;1588;50.892;7.082;2023-09-08T03:48:22;14.40;99.90
3156;DHT22;1588;50.892;7.082;2023-09-08T03:53:24;14.40;99.90
3156;DHT22;1588;50.892;7.082;2023-09-08T03:58:27;14.40;99.90
3156;DHT22;1588;50.892;7.082;2023-09-08T04:03:30;14.30;99.90
3156;DHT22;1588;50.892;7.082;2023-09-08T04:08:32;14.30;99.90
3156;DHT22;1588;50.892;7.082;2023-09-08T04:13:35;14.20;99.90
3156;DHT22;1588;50.892;7.082;2023-09-08T04:18:37;14.20;99.90
3156;DHT22;1588;50.892;7.082;2023-09-08T04:23:40;14.10;99.90
3156;DHT22;1588;50.892;7.082;2023-09-08T04:28:43;14.10;99.90
3156;DHT22;1588;50.892;7.082;2023-09-08T04:33:45;14.10;99.90
3156;DHT22;1588;50.892;7.082;2023-09-08T04:38:47;14.10;99.90
3156;DHT22;1588;50.892;7.082;2023-09-08T04:43:51;14.00;99.90
3156;DHT22;1588;50.892;7.082;2023-09-08T04:48:53;14.00;99.90
3156;DHT22;1588;50.892;7.082;2023-09-08T04:53:56;14.00;99.90
3156;DHT22;1588;50.892;7.082;2023-09-08T04:58:59;14.00;99.90
3156;DHT22;1588;50.892;7.082;2023-09-08T05:04:02;14.00;99.90
3156;DHT22;1588;50.892;7.082;2023-09-08T05:09:04;14.00;99.90
3156;DHT22;1588;50.892;7.082;2023-09-08T05:14:09;14.00;99.90
3156;DHT22;1588;50.892;7.082;2023-09-08T05:19:12;14.00;99.90
3156;DHT22;1588;50.892;7.082;2023-09-08T05:24:14;14.00;99.90
3156;DHT22;1588;50.892;7.082;2023-09-08T05:29:18;14.10;99.90
3156;DHT22;1588;50.892;7.082;2023-09-08T05:34:20;14.10;99.90
3156;DHT22;1588;50.892;7.082;2023-09-08T05:39:22;14.20;99.90
3156;DHT22;1588;50.892;7.082;2023-09-08T05:44:26;14.30;99.90
3156;DHT22;1588;50.892;7.082;2023-09-08T05:49:35;14.40;99.90
3156;DHT22;1588;50.892;7.082;2023-09-08T05:54:37;14.50;99.90
3156;DHT22;1588;50.892;7.082;2023-09-08T05:59:41;14.60;99.90
3156;DHT22;1588;50.892;7.082;2023-09-08T06:04:43;14.80;99.90
3156;DHT22;1588;50.892;7.082;2023-09-08T06:09:45;15.20;99.90
3156;DHT22;1588;50.892;7.082;2023-09-08T06:14:49;15.90;99.90
3156;DHT22;1588;50.892;7.082;2023-09-08T06:19:51;18.30;99.90
3156;DHT22;1588;50.892;7.082;2023-09-08T06:24:53;19.90;99.90
3156;DHT22;1588;50.892;7.082;2023-09-08T06:29:57;19.50;99.90
3156;DHT22;1588;50.892;7.082;2023-09-08T06:34:59;18.60;99.90
3156;DHT22;1588;50.892;7.082;2023-09-08T06:40:01;17.90;99.90
3156;DHT22;1588;50.892;7.082;2023-09-08T06:45:07;17.70;99.90
3156;DHT22;1588;50.892;7.082;2023-09-08T06:50:09;17.70;99.90
3156;DHT22;1588;50.892;7.082;2023-09-08T06:55:11;17.90;99.90
3156;DHT22;1588;50.892;7.082;2023-09-08T07:00:19;18.20;99.90
3156;DHT22;1588;50.892;7.082;2023-09-08T07:05:21;19.30;99.90
3156;DHT22;1588;50.892;7.082;2023-09-08T07:10:23;22.90;99.90
3156;DHT22;1588;50.892;7.082;2023-09-08T07:15:27;26.10;99.90
3156;DHT22;1588;50.892;7.082;2023-09-08T07:20:29;27.40;99.90
3156;DHT22;1588;50.892;7.082;2023-09-08T07:25:31;28.40;99.90
3156;DHT22;1588;50.892;7.082;2023-09-08T07:30:35;28.80;99.90
3156;DHT22;1588;50.892;7.082;2023-09-08T07:35:37;29.50;99.90
3156;DHT22;1588;50.892;7.082;2023-09-08T07:40:41;29.80;99.90
3156;DHT22;1588;50.892;7.082;2023-09-08T07:45:45;30.40;99.90
3156;DHT22;1588;50.892;7.082;2023-09-08T07:50:47;30.80;99.90
3156;DHT22;1588;50.892;7.082;2023-09-08T07:55:49;31.40;99.90
3156;DHT22;1588;50.892;7.082;2023-09-08T08:00:53;31.90;99.90
3156;DHT22;1588;50.892;7.082;2023-09-08T08:05:56;31.70;99.90
3156;DHT22;1588;50.892;7.082;2023-09-08T08:10:59;31.60;99.90
3156;DHT22;1588;50.892;7.082;2023-09-08T08:16:03;29.90;99.90
3156;DHT22;1588;50.892;7.082;2023-09-08T08:21:05;30.60;99.90
3156;DHT22;1588;50.892;7.082;2023-09-08T08:26:08;30.80;99.90
3156;DHT22;1588;50.892;7.082;2023-09-08T08:31:11;30.70;99.90
3156;DHT22;1588;50.892;7.082;2023-09-08T08:36:13;30.30;99.90
3156;DHT22;1588;50.892;7.082;2023-09-08T08:41:16;30.60;99.90
3156;DHT22;1588;50.892;7.082;2023-09-08T08:46:21;29.80;99.90
3156;DHT22;1588;50.892;7.082;2023-09-08T08:51:24;30.10;99.90
3156;DHT22;1588;50.892;7.082;2023-09-08T08:56:27;30.80;99.90
3156;DHT22;1588;50.892;7.082;2023-09-08T09:01:31;29.60;99.90
3156;DHT22;1588;50.892;7.082;2023-09-08T09:06:34;30.20;99.90
3156;DHT22;1588;50.892;7.082;2023-09-08T09:11:36;30.60;99.90
3156;DHT22;1588;50.892;7.082;2023-09-08T09:16:41;30.70;99.90
3156;DHT22;1588;50.892;7.082;2023-09-08T09:21:45;30.90;99.90
3156;DHT22;1588;50.892;7.082;2023-09-08T09:26:52;30.40;99.90
3156;DHT22;1588;50.892;7.082;2023-09-08T09:31:57;30.40;99.90
3156;DHT22;1588;50.892;7.082;2023-09-08T09:37:04;30.20;99.90
3156;DHT22;1588;50.892;7.082;2023-09-08T09:42:07;31.60;99.90
3156;DHT22;1588;50.892;7.082;2023-09-08T09:47:13;31.90;99.90
3156;DHT22;1588;50.892;7.082;2023-09-08T09:52:21;32.40;99.90
3156;DHT22;1588;50.892;7.082;2023-09-08T09:57:23;31.60;99.90
3156;DHT22;1588;50.892;7.082;2023-09-08T10:02:27;32.10;99.90
3156;DHT22;1588;50.892;7.082;2023-09-08T10:07:31;32.90;99.90
3156;DHT22;1588;50.892;7.082;2023-09-08T10:12:37;32.80;99.90
3156;DHT22;1588;50.892;7.082;2023-09-08T10:17:50;33.10;99.90
3156;DHT22;1588;50.892;7.082;2023-09-08T10:22:58;32.30;99.90
3156;DHT22;1588;50.892;7.082;2023-09-08T10:28:03;32.70;99.90
3156;DHT22;1588;50.892;7.082;2023-09-08T10:33:27;33.40;99.90
3156;DHT22;1588;50.892;7.082;2023-09-08T10:38:32;33.70;99.90
3156;DHT22;1588;50.892;7.082;2023-09-08T10:43:34;33.20;99.90
3156;DHT22;1588;50.892;7.082;2023-09-08T10:48:41;33.50;99.90
3156;DHT22;1588;50.892;7.082;2023-09-08T10:53:47;33.30;99.90
3156;DHT22;1588;50.892;7.082;2023-09-08T10:58:51;33.00;99.90
3156;DHT22;1588;50.892;7.082;2023-09-08T11:03:55;32.90;99.90
3156;DHT22;1588;50.892;7.082;2023-09-08T11:09:06;33.50;99.90
3156;DHT22;1588;50.892;7.082;2023-09-08T11:14:08;34.10;99.90
3156;DHT22;1588;50.892;7.082;2023-09-08T11:19:12;33.30;99.90
3156;DHT22;1588;50.892;7.082;2023-09-08T11:24:14;32.80;99.90
3156;DHT22;1588;50.892;7.082;2023-09-08T11:29:16;33.10;99.90
3156;DHT22;1588;50.892;7.082;2023-09-08T11:34:20;32.70;99.90
3156;DHT22;1588;50.892;7.082;2023-09-08T11:39:23;32.50;99.90
3156;DHT22;1588;50.892;7.082;2023-09-08T11:44:26;32.50;99.90
3156;DHT22;1588;50.892;7.082;2023-09-08T11:49:35;32.40;99.90
3156;DHT22;1588;50.892;7.082;2023-09-08T11:54:37;32.40;99.70
3156;DHT22;1588;50.892;7.082;2023-09-08T11:59:40;32.50;99.90
3156;DHT22;1588;50.892;7.082;2023-09-08T12:04:45;32.80;99.90
3156;DHT22;1588;50.892;7.082;2023-09-08T12:09:47;32.60;99.90
3156;DHT22;1588;50.892;7.082;2023-09-08T12:14:49;32.70;99.90
3156;DHT22;1588;50.892;7.082;2023-09-08T12:19:53;32.50;99.90
3156;DHT22;1588;50.892;7.082;2023-09-08T12:24:58;32.20;99.90
3156;DHT22;1588;50.892;7.082;2023-09-08T12:30:06;32.10;99.90
3156;DHT22;1588;50.892;7.082;2023-09-08T12:35:19;31.70;99.90
3156;DHT22;1588;50.892;7.082;2023-09-08T12:40:33;31.70;99.90
3156;DHT22;1588;50.892;7.082;2023-09-08T12:45:36;31.60;99.90
3156;DHT22;1588;50.892;7.082;2023-09-08T12:50:39;31.60;99.90
3156;DHT22;1588;50.892;7.082;2023-09-08T12:55:42;31.50;99.90
3156;DHT22;1588;50.892;7.082;2023-09-08T13:00:44;31.30;99.70
3156;DHT22;1588;50.892;7.082;2023-09-08T13:05:48;31.40;99.50
3156;DHT22;1588;50.892;7.082;2023-09-08T13:10:50;31.40;99.90
3156;DHT22;1588;50.892;7.082;2023-09-08T13:15:52;31.50;99.90
3156;DHT22;1588;50.892;7.082;2023-09-08T13:20:56;31.50;99.90
3156;DHT22;1588;50.892;7.082;2023-09-08T13:25:58;31.50;99.90
3156;DHT22;1588;50.892;7.082;2023-09-08T13:31:00;31.30;99.90
3156;DHT22;1588;50.892;7.082;2023-09-08T13:36:04;31.30;99.90
3156;DHT22;1588;50.892;7.082;2023-09-08T13:41:06;31.30;99.90
3156;DHT22;1588;50.892;7.082;2023-09-08T13:46:09;31.10;99.90
3156;DHT22;1588;50.892;7.082;2023-09-08T13:51:13;31.00;99.90
3156;DHT22;1588;50.892;7.082;2023-09-08T13:56:15;31.10;99.90
3156;DHT22;1588;50.892;7.082;2023-09-08T14:01:17;31.00;99.90
3156;DHT22;1588;50.892;7.082;2023-09-08T14:06:21;31.00;99.90
3156;DHT22;1588;50.892;7.082;2023-09-08T14:11:23;30.80;99.90
3156;DHT22;1588;50.892;7.082;2023-09-08T14:16:26;30.90;99.90
3156;DHT22;1588;50.892;7.082;2023-09-08T14:21:29;30.80;99.90
3156;DHT22;1588;50.892;7.082;2023-09-08T14:26:33;30.70;99.90
3156;DHT22;1588;50.892;7.082;2023-09-08T14:31:35;30.60;99.90
3156;DHT22;1588;50.892;7.082;2023-09-08T14:36:39;30.60;99.90
3156;DHT22;1588;50.892;7.082;2023-09-08T14:41:41;30.60;99.90
3156;DHT22;1588;50.892;7.082;2023-09-08T14:46:44;30.50;99.90
3156;DHT22;1588;50.892;7.082;2023-09-08T14:51:49;30.30;99.90
3156;DHT22;1588;50.892;7.082;2023-09-08T14:56:54;30.20;99.90
3156;DHT22;1588;50.892;7.082;2023-09-08T15:01:57;30.20;99.90
3156;DHT22;1588;50.892;7.082;2023-09-08T15:07:01;30.10;99.90
3156;DHT22;1588;50.892;7.082;2023-09-08T15:12:04;30.10;99.90
3156;DHT22;1588;50.892;7.082;2023-09-08T15:17:06;30.00;99.90
3156;DHT22;1588;50.892;7.082;2023-09-08T15:22:10;30.00;99.90
3156;DHT22;1588;50.892;7.082;2023-09-08T15:27:13;29.90;99.90
3156;DHT22;1588;50.892;7.082;2023-09-08T15:32:16;29.90;99.90
3156;DHT22;1588;50.892;7.082;2023-09-08T15:37:20;29.80;99.90
3156;DHT22;1588;50.892;7.082;2023-09-08T15:42:22;29.80;99.90
3156;DHT22;1588;50.892;7.082;2023-09-08T15:47:25;29.70;99.90
3156;DHT22;1588;50.892;7.082;2023-09-08T15:52:28;29.60;99.90
3156;DHT22;1588;50.892;7.082;2023-09-08T15:57:30;29.40;99.90
3156;DHT22;1588;50.892;7.082;2023-09-08T16:02:32;29.50;99.90
3156;DHT22;1588;50.892;7.082;2023-09-08T16:07:36;29.30;99.90
3156;DHT22;1588;50.892;7.082;2023-09-08T16:12:39;29.20;99.90
3156;DHT22;1588;50.892;7.082;2023-09-08T16:17:42;29.20;99.90
3156;DHT22;1588;50.892;7.082;2023-09-08T16:22:46;29.10;99.90
3156;DHT22;1588;50.892;7.082;2023-09-08T16:27:48;28.90;99.90
3156;DHT22;1588;50.892;7.082;2023-09-08T16:32:51;28.80;99.90
3156;DHT22;1588;50.892;7.082;2023-09-08T16:37:54;28.70;99.90
3156;DHT22;1588;50.892;7.082;2023-09-08T16:42:56;28.50;99.90
3156;DHT22;1588;50.892;7.082;2023-09-08T16:48:02;28.30;99.90
3156;DHT22;1588;50.892;7.082;2023-09-08T16:53:21;28.20;99.90
3156;DHT22;1588;50.892;7.082;2023-09-08T16:58:23;28.10;99.90
3156;DHT22;1588;50.892;7.082;2023-09-08T17:03:32;27.90;99.90
3156;DHT22;1588;50.892;7.082;2023-09-08T17:08:35;27.80;99.90
3156;DHT22;1588;50.892;7.082;2023-09-08T17:13:38;27.60;99.90
3156;DHT22;1588;50.892;7.082;2023-09-08T17:18:40;27.40;99.90
3156;DHT22;1588;50.892;7.082;2023-09-08T17:23:43;27.20;99.90
3156;DHT22;1588;50.892;7.082;2023-09-08T17:28:46;26.90;99.90
3156;DHT22;1588;50.892;7.082;2023-09-08T17:33:51;26.60;99.90
3156;DHT22;1588;50.892;7.082;2023-09-08T17:38:55;26.40;99.90
3156;DHT22;1588;50.892;7.082;2023-09-08T17:43:57;26.00;99.90
3156;DHT22;1588;50.892;7.082;2023-09-08T17:49:00;25.70;99.90
3156;DHT22;1588;50.892;7.082;2023-09-08T17:54:05;25.50;99.90
3156;DHT22;1588;50.892;7.082;2023-09-08T17:59:10;25.20;99.90
3156;DHT22;1588;50.892;7.082;2023-09-08T18:04:23;24.90;99.90
3156;DHT22;1588;50.892;7.082;2023-09-08T18:09:28;24.70;99.90
3156;DHT22;1588;50.892;7.082;2023-09-08T18:14:30;24.50;99.90
3156;DHT22;1588;50.892;7.082;2023-09-08T18:19:33;24.30;99.90
3156;DHT22;1588;50.892;7.082;2023-09-08T18:24:38;24.10;99.90
3156;DHT22;1588;50.892;7.082;2023-09-08T18:29:45;23.90;99.90
3156;DHT22;1588;50.892;7.082;2023-09-08T18:34:48;23.60;99.90
3156;DHT22;1588;50.892;7.082;2023-09-08T18:39:51;23.50;99.90
3156;DHT22;1588;50.892;7.082;2023-09-08T18:44:54;23.30;99.90
3156;DHT22;1588;50.892;7.082;2023-09-08T18:49:56;23.10;99.90
3156;DHT22;1588;50.892;7.082;2023-09-08T18:55:00;22.90;99.90
3156;DHT22;1588;50.892;7.082;2023-09-08T19:00:03;22.70;99.90
3156;DHT22;1588;50.892;7.082;2023-09-08T19:05:06;22.60;99.90
3156;DHT22;1588;50.892;7.082;2023-09-08T19:10:09;22.50;99.90
3156;DHT22;1588;50.892;7.082;2023-09-08T19:15:17;22.40;99.90
3156;DHT22;1588;50.892;7.082;2023-09-08T19:20:20;22.20;99.90
3156;DHT22;1588;50.892;7.082;2023-09-08T19:25:23;22.10;99.90
3156;DHT22;1588;50.892;7.082;2023-09-08T19:30:26;22.00;99.90
3156;DHT22;1588;50.892;7.082;2023-09-08T19:35:28;21.80;99.90
3156;DHT22;1588;50.892;7.082;2023-09-08T19:40:32;21.70;99.90
3156;DHT22;1588;50.892;7.082;2023-09-08T19:45:38;21.50;99.90
3156;DHT22;1588;50.892;7.082;2023-09-08T19:50:43;21.40;99.90
3156;DHT22;1588;50.892;7.082;2023-09-08T19:55:47;21.30;99.90
3156;DHT22;1588;50.892;7.082;2023-09-08T20:00:50;21.10;99.90
3156;DHT22;1588;50.892;7.082;2023-09-08T20:05:53;21.00;99.90
3156;DHT22;1588;50.892;7.082;2023-09-08T20:10:56;20.90;99.90
3156;DHT22;1588;50.892;7.082;2023-09-08T20:15:59;20.80;99.90
3156;DHT22;1588;50.892;7.082;2023-09-08T20:21:06;20.70;99.90
3156;DHT22;1588;50.892;7.082;2023-09-08T20:26:10;20.70;99.90
3156;DHT22;1588;50.892;7.082;2023-09-08T20:31:12;20.60;99.90
3156;DHT22;1588;50.892;7.082;2023-09-08T20:36:15;20.50;99.90
3156;DHT22;1588;50.892;7.082;2023-09-08T20:41:18;20.30;99.90
3156;DHT22;1588;50.892;7.082;2023-09-08T20:46:21;20.30;99.90
3156;DHT22;1588;50.892;7.082;2023-09-08T20:51:23;20.20;99.90
3156;DHT22;1588;50.892;7.082;2023-09-08T20:56:27;20.10;99.90
3156;DHT22;1588;50.892;7.082;2023-09-08T21:01:29;20.00;99.90
3156;DHT22;1588;50.892;7.082;2023-09-08T21:06:31;19.90;99.90
3156;DHT22;1588;50.892;7.082;2023-09-08T21:11:37;19.90;99.90
3156;DHT22;1588;50.892;7.082;2023-09-08T21:16:40;19.80;99.90
3156;DHT22;1588;50.892;7.082;2023-09-08T21:21:42;19.70;99.90
3156;DHT22;1588;50.892;7.082;2023-09-08T21:26:45;19.70;99.90
3156;DHT22;1588;50.892;7.082;2023-09-08T21:31:48;19.60;99.90
3156;DHT22;1588;50.892;7.082;2023-09-08T21:36:50;19.50;99.90
3156;DHT22;1588;50.892;7.082;2023-09-08T21:41:54;19.40;99.90
3156;DHT22;1588;50.892;7.082;2023-09-08T21:46:56;19.30;99.90
3156;DHT22;1588;50.892;7.082;2023-09-08T21:51:59;19.30;99.90
3156;DHT22;1588;50.892;7.082;2023-09-08T21:57:03;19.20;99.90
3156;DHT22;1588;50.892;7.082;2023-09-08T22:02:05;19.10;99.90
3156;DHT22;1588;50.892;7.082;2023-09-08T22:07:08;19.10;99.90
3156;DHT22;1588;50.892;7.082;2023-09-08T22:12:16;19.00;99.90
3156;DHT22;1588;50.892;7.082;2023-09-08T22:17:18;18.90;99.90
3156;DHT22;1588;50.892;7.082;2023-09-08T22:22:20;18.80;99.90
3156;DHT22;1588;50.892;7.082;2023-09-08T22:27:24;18.70;99.90
3156;DHT22;1588;50.892;7.082;2023-09-08T22:32:26;18.70;99.90
3156;DHT22;1588;50.892;7.082;2023-09-08T22:37:28;18.60;99.90
3156;DHT22;1588;50.892;7.082;2023-09-08T22:42:36;18.60;99.90
3156;DHT22;1588;50.892;7.082;2023-09-08T22:47:39;18.60;99.90
3156;DHT22;1588;50.892;7.082;2023-09-08T22:52:43;18.60;99.90
3156;DHT22;1588;50.892;7.082;2023-09-08T22:57:47;18.50;99.90
3156;DHT22;1588;50.892;7.082;2023-09-08T23:02:50;18.40;99.90
3156;DHT22;1588;50.892;7.082;2023-09-08T23:07:53;18.40;99.90
3156;DHT22;1588;50.892;7.082;2023-09-08T23:12:57;18.30;99.90
3156;DHT22;1588;50.892;7.082;2023-09-08T23:17:59;18.20;99.90
3156;DHT22;1588;50.892;7.082;2023-09-08T23:23:01;18.20;99.90
3156;DHT22;1588;50.892;7.082;2023-09-08T23:28:05;18.20;99.90
3156;DHT22;1588;50.892;7.082;2023-09-08T23:33:07;18.10;99.90
3156;DHT22;1588;50.892;7.082;2023-09-08T23:38:10;18.10;99.90
3156;DHT22;1588;50.892;7.082;2023-09-08T23:43:13;18.10;99.90
3156;DHT22;1588;50.892;7.082;2023-09-08T23:48:16;18.10;99.90
3156;DHT22;1588;50.892;7.082;2023-09-08T23:53:19;18.10;99.90
3156;DHT22;1588;50.892;7.082;2023-09-08T23:58:22;18.10;99.90
